Terminal Aerodrome Forecast
Issued by NWS Grand Forks, ND

Home | Current Version | Previous Version | Graphics & Text | Print | Product List | Glossary On
Versions: 1 2 3 4 5 6 7 8 9 10 11 12 13 14 15 16 17 18 19
383
FTUS43 KFGF 212131 AAB
TAFFAR
TAF AMD
KFAR 212131Z 2122/2218 32016KT P6SM SKC
     FM220000 32009KT P6SM FEW250
     FM220500 VRB06KT P6SM FEW250
     FM221500 17009KT P6SM BKN100=

USA.gov is the U.S. government's official web portal to all federal, state and local government web resources and services.